Time;durP1;ratioP1;P1;durP2;ratioP2;P2;SDS_P1;SDS_P2;PMS_P1;PMS_P2;Temp;Humidity;BMP_temperature;BMP_pressure;BME280_temperature;BME280_humidity;BME280_pressure;Samples;Min_cycle;Max_cycle;Signal;HPM_P1;HPM_P2
2023/04/02 00:01:53;;;;;;;2.00;1.30;;;;;;;6.26;100.00;96101.97;4928951;28;20206;-67
2023/04/02 00:04:22;;;;;;;1.33;1.23;;;;;;;6.25;100.00;96102.97;4927862;28;21242;-66
2023/04/02 00:06:53;;;;;;;1.37;1.27;;;;;;;6.24;100.00;96098.69;4952657;28;20293;-67
2023/04/02 00:09:29;;;;;;;1.40;1.30;;;;;;;6.25;100.00;96097.72;4903982;28;20638;-68
2023/04/02 00:11:59;;;;;;;1.03;1.03;;;;;;;6.25;100.00;96102.97;4953691;28;20206;-68
2023/04/02 00:14:29;;;;;;;2.70;1.40;;;;;;;6.17;100.00;96101.25;4942694;28;20216;-66
2023/04/02 00:17:00;;;;;;;1.27;1.27;;;;;;;6.20;100.00;96107.94;4932399;28;20239;-66
2023/04/02 00:19:31;;;;;;;1.57;1.47;;;;;;;6.22;100.00;96111.19;4948674;28;20328;-65
2023/04/02 00:22:00;;;;;;;1.40;1.30;;;;;;;6.18;100.00;96113.41;4927268;28;20213;-66
2023/04/02 00:24:28;;;;;;;1.73;1.23;;;;;;;6.18;100.00;96117.84;4953861;28;20665;-65
2023/04/02 00:26:55;;;;;;;1.10;1.10;;;;;;;6.19;100.00;96115.03;4905595;28;20221;-66
2023/04/02 00:29:23;;;;;;;4.17;2.27;;;;;;;6.20;100.00;96126.34;4952162;28;20364;-69
2023/04/02 00:31:53;;;;;;;1.10;1.10;;;;;;;6.20;100.00;96131.63;4928355;28;20220;-67
2023/04/02 00:34:31;;;;;;;2.43;1.40;;;;;;;6.19;100.00;96124.72;4931244;28;20552;-65
2023/04/02 00:36:59;;;;;;;1.63;1.53;;;;;;;6.20;100.00;96128.97;4926398;28;20201;-67
2023/04/02 00:39:28;;;;;;;1.27;1.17;;;;;;;6.19;100.00;96138.72;4955332;28;20730;-66
2023/04/02 00:42:03;;;;;;;1.50;1.50;;;;;;;6.18;100.00;96136.25;4903847;28;20218;-66
2023/04/02 00:44:32;;;;;;;1.40;1.40;;;;;;;6.17;100.00;96142.50;4950081;28;20288;-66
2023/04/02 00:47:03;;;;;;;1.27;1.23;;;;;;;6.14;100.00;96137.59;4928943;28;20214;-66
2023/04/02 00:49:36;;;;;;;2.23;1.60;;;;;;;6.10;100.00;96145.06;4929017;28;20241;-65
2023/04/02 00:52:06;;;;;;;1.87;1.37;;;;;;;6.11;100.00;96143.22;4922088;28;20373;-66
2023/04/02 00:54:39;;;;;;;2.90;1.80;;;;;;;6.10;100.00;96146.84;4954577;28;20639;-66
2023/04/02 00:57:13;;;;;;;1.80;1.70;;;;;;;6.12;100.00;96150.97;4914014;28;20325;-66
2023/04/02 00:59:48;;;;;;;1.60;1.60;;;;;;;6.11;100.00;96141.44;4955857;28;20311;-65
2023/04/02 01:02:25;;;;;;;1.70;1.60;;;;;;;6.08;100.00;96145.22;4923860;28;20217;-67
2023/04/02 01:04:55;;;;;;;2.00;1.47;;;;;;;6.09;100.00;96153.94;4928074;28;20293;-66
2023/04/02 01:07:34;;;;;;;3.27;1.57;;;;;;;6.08;100.00;96153.13;4927704;28;20214;-66
2023/04/02 01:10:16;;;;;;;1.70;1.67;;;;;;;6.10;100.00;96152.13;4950104;28;20260;-67
2023/04/02 01:12:54;;;;;;;1.63;1.50;;;;;;;6.08;100.00;96155.75;4946000;28;20244;-66
2023/04/02 01:15:26;;;;;;;1.47;1.47;;;;;;;6.08;100.00;96166.28;4920228;28;20453;-68
2023/04/02 01:18:08;;;;;;;1.73;1.60;;;;;;;6.08;100.00;96161.00;4929868;28;20217;-67
2023/04/02 01:20:53;;;;;;;1.53;1.53;;;;;;;6.09;100.00;96164.47;4931260;28;20236;-64
2023/04/02 01:23:25;;;;;;;1.93;1.83;;;;;;;6.12;100.00;96168.53;4922287;28;20692;-65
2023/04/02 01:25:58;;;;;;;1.90;1.87;;;;;;;6.11;100.00;96170.38;4952927;28;20205;-67
2023/04/02 01:28:28;;;;;;;1.60;1.50;;;;;;;6.14;100.00;96171.81;4903072;28;22261;-65
2023/04/02 01:30:58;;;;;;;1.73;1.63;;;;;;;6.13;100.00;96175.44;4950572;28;20229;-66
2023/04/02 01:33:29;;;;;;;1.67;1.57;;;;;;;6.12;100.00;96176.44;4928515;28;21049;-67
2023/04/02 01:36:04;;;;;;;2.43;2.33;;;;;;;6.14;100.00;96179.69;4932416;28;20216;-67
2023/04/02 01:38:35;;;;;;;1.67;1.43;;;;;;;6.13;100.00;96178.88;4927791;28;20202;-67
2023/04/02 01:41:07;;;;;;;1.70;1.63;;;;;;;6.12;100.00;96185.16;4951724;28;20230;-67
2023/04/02 01:43:40;;;;;;;1.53;1.53;;;;;;;6.04;100.00;96170.25;4901964;28;20225;-66
2023/04/02 01:46:27;;;;;;;1.90;1.80;;;;;;;6.11;100.00;96190.56;4945777;28;20670;-67
2023/04/02 01:48:55;;;;;;;2.00;1.90;;;;;;;6.11;100.00;96190.56;4932480;28;20229;-67
2023/04/02 01:51:27;;;;;;;2.00;1.90;;;;;;;6.11;100.00;96187.94;4925281;28;21572;-66
2023/04/02 01:53:55;;;;;;;2.43;2.33;;;;;;;6.11;100.00;96196.66;4929267;28;20205;-66
2023/04/02 01:56:23;;;;;;;1.77;1.70;;;;;;;6.07;100.00;96196.19;4951310;28;20515;-66
2023/04/02 01:58:50;;;;;;;2.00;1.90;;;;;;;6.09;100.00;96188.13;4953167;28;21186;-65
2023/04/02 02:01:20;;;;;;;1.93;1.73;;;;;;;6.11;100.00;96201.09;4906475;28;20698;-65
2023/04/02 02:03:49;;;;;;;2.50;2.30;;;;;;;6.10;100.00;96186.31;4953129;28;20689;-66
2023/04/02 02:06:18;;;;;;;2.13;2.03;;;;;;;6.08;100.00;96200.47;4905271;28;20765;-66
2023/04/02 02:08:49;;;;;;;1.60;1.60;;;;;;;6.02;100.00;96188.03;4953829;28;20213;-67
2023/04/02 02:11:18;;;;;;;1.73;1.73;;;;;;;6.07;100.00;96208.53;4925552;28;20240;-66
2023/04/02 02:13:48;;;;;;;2.37;1.80;;;;;;;6.04;100.00;96193.09;4950265;28;20689;-67
2023/04/02 02:16:17;;;;;;;2.50;2.30;;;;;;;6.10;100.00;96216.06;4871741;28;20221;-65
2023/04/02 02:18:49;;;;;;;2.23;2.13;;;;;;;6.06;100.00;96209.50;4951272;28;21492;-65
2023/04/02 02:21:28;;;;;;;2.30;2.20;;;;;;;6.07;100.00;96211.16;4933567;28;20221;-67
2023/04/02 02:23:56;;;;;;;2.07;1.97;;;;;;;6.06;100.00;96214.78;4934525;28;20886;-66
2023/04/02 02:26:25;;;;;;;2.77;1.70;;;;;;;6.07;100.00;96216.44;4925062;28;20276;-66
2023/04/02 02:28:55;;;;;;;3.50;2.83;;;;;;;6.07;100.00;96221.69;4951373;28;20491;-65
2023/04/02 02:31:27;;;;;;;2.07;1.97;;;;;;;6.03;100.00;96215.13;4911874;28;20225;-66
2023/04/02 02:33:58;;;;;;;2.07;1.90;;;;;;;6.10;100.00;96221.31;4947077;28;20748;-65
2023/04/02 02:36:28;;;;;;;2.70;2.50;;;;;;;6.03;100.00;96215.13;4928495;28;20430;-66
2023/04/02 02:38:58;;;;;;;2.83;1.90;;;;;;;6.07;100.00;96222.50;4934412;28;20236;-65
2023/04/02 02:41:28;;;;;;;1.80;1.70;;;;;;;6.11;100.00;96222.13;4924023;28;22373;-65
2023/04/02 02:44:00;;;;;;;1.83;1.73;;;;;;;6.09;100.00;96224.97;4951934;28;20411;-65
2023/04/02 02:46:29;;;;;;;1.90;1.80;;;;;;;6.02;100.00;96203.81;4946496;28;20217;-69
2023/04/02 02:49:00;;;;;;;2.10;2.00;;;;;;;6.07;100.00;96206.72;4923942;28;20834;-65
2023/04/02 02:51:30;;;;;;;2.30;2.20;;;;;;;6.16;100.00;96223.25;4922888;28;20255;-67
2023/04/02 02:54:02;;;;;;;1.90;1.80;;;;;;;6.08;100.00;96221.50;4939474;28;20776;-66
2023/04/02 02:56:30;;;;;;;2.80;1.90;;;;;;;6.08;100.00;96225.94;4924964;28;20586;-66
2023/04/02 02:58:59;;;;;;;1.90;1.80;;;;;;;6.07;100.00;96227.75;4951644;28;20720;-64
2023/04/02 03:01:28;;;;;;;1.73;1.63;;;;;;;6.05;100.00;96232.38;4947414;28;20329;-66
2023/04/02 03:03:55;;;;;;;2.10;2.00;;;;;;;6.04;100.00;96232.53;4904736;28;20210;-65
2023/04/02 03:06:25;;;;;;;2.20;2.10;;;;;;;6.06;100.00;96239.28;4952651;28;20279;-66
2023/04/02 03:08:57;;;;;;;2.20;1.93;;;;;;;6.06;100.00;96235.81;4914498;28;20287;-66
2023/04/02 03:11:29;;;;;;;1.90;1.80;;;;;;;6.06;100.00;96241.06;4955574;28;21116;-65
2023/04/02 03:14:02;;;;;;;1.83;1.80;;;;;;;6.06;100.00;96241.91;4939723;28;20296;-66
2023/04/02 03:16:34;;;;;;;2.13;1.87;;;;;;;6.06;100.00;96251.59;4950964;28;20209;-66
2023/04/02 03:19:05;;;;;;;1.93;1.90;;;;;;;6.03;100.00;96250.16;4917031;28;21407;-65
2023/04/02 03:21:37;;;;;;;1.90;1.80;;;;;;;6.04;100.00;96257.03;4953948;28;20209;-67
2023/04/02 03:24:10;;;;;;;5.33;2.00;;;;;;;6.09;100.00;96261.78;4920203;28;20262;-65
2023/04/02 03:26:40;;;;;;;1.87;1.70;;;;;;;6.06;100.00;96262.09;4938523;28;20587;-67
2023/04/02 03:29:15;;;;;;;2.10;1.90;;;;;;;6.04;100.00;96262.31;4955504;28;20210;-67
2023/04/02 03:31:46;;;;;;;1.87;1.77;;;;;;;6.02;100.00;96261.66;4951078;28;20570;-66
2023/04/02 03:34:17;;;;;;;1.80;1.70;;;;;;;6.04;100.00;96266.72;4913751;28;20231;-65
2023/04/02 03:36:52;;;;;;;2.60;1.87;;;;;;;6.02;100.00;96269.56;4949331;28;20360;-66
2023/04/02 03:39:23;;;;;;;3.30;2.00;;;;;;;6.01;100.00;96262.66;4914215;28;20626;-65
2023/04/02 03:41:53;;;;;;;2.37;1.73;;;;;;;6.15;100.00;96270.75;4953987;28;20400;-65
2023/04/02 03:44:24;;;;;;;2.30;2.10;;;;;;;6.14;100.00;96258.59;4934292;28;20206;-66
2023/04/02 03:46:56;;;;;;;1.80;1.40;;;;;;;6.07;100.00;96269.03;4948198;28;21027;-66
2023/04/02 03:49:29;;;;;;;2.50;2.30;;;;;;;6.07;100.00;96269.03;4950832;28;20221;-65
2023/04/02 03:52:01;;;;;;;2.17;2.03;;;;;;;6.01;100.00;96275.81;4923128;28;20368;-65
2023/04/02 03:54:30;;;;;;;1.97;1.87;;;;;;;5.98;100.00;96275.28;4932354;28;20213;-65
2023/04/02 03:56:58;;;;;;;2.10;2.00;;;;;;;5.92;100.00;96272.38;4942614;28;20468;-65
2023/04/02 03:59:33;;;;;;;4.30;2.00;;;;;;;5.94;100.00;96286.16;4934467;28;20726;-67
2023/04/02 04:02:10;;;;;;;3.00;2.13;;;;;;;5.94;100.00;96290.63;4951157;28;20317;-67
2023/04/02 04:04:40;;;;;;;2.03;1.87;;;;;;;5.93;100.00;96297.69;4953899;28;20216;-68
2023/04/02 04:07:15;;;;;;;3.17;2.10;;;;;;;5.93;100.00;96297.69;4909063;28;20201;-68
2023/04/02 04:09:46;;;;;;;2.13;1.80;;;;;;;5.93;100.00;96297.69;4932712;28;20229;-68
2023/04/02 04:12:22;;;;;;;2.30;2.20;;;;;;;5.90;100.00;96300.66;4931945;28;20725;-67
2023/04/02 04:14:53;;;;;;;2.10;2.00;;;;;;;5.93;100.00;96310.84;4931870;28;20664;-67
2023/04/02 04:17:28;;;;;;;2.90;1.90;;;;;;;5.96;100.00;96308.84;4949388;28;20225;-67
2023/04/02 04:20:01;;;;;;;2.23;2.13;;;;;;;5.94;100.00;96316.94;4950186;28;20431;-68
2023/04/02 04:22:31;;;;;;;2.20;2.10;;;;;;;5.92;100.00;96322.34;4909365;28;20303;-68
2023/04/02 04:24:59;;;;;;;2.70;1.73;;;;;;;5.90;100.00;96326.97;4935307;28;20222;-67
2023/04/02 04:27:33;;;;;;;2.17;2.07;;;;;;;5.89;100.00;96333.22;4932670;28;20229;-66
2023/04/02 04:30:04;;;;;;;3.40;2.50;;;;;;;5.91;100.00;96338.31;4931738;28;20343;-66
2023/04/02 04:32:35;;;;;;;2.80;2.00;;;;;;;5.92;100.00;96347.84;4954656;28;20678;-66
2023/04/02 04:35:07;;;;;;;2.73;2.30;;;;;;;5.92;100.00;96345.19;4951160;28;21161;-66
2023/04/02 04:37:39;;;;;;;2.00;1.90;;;;;;;5.91;100.00;96347.00;4929907;28;20552;-67
2023/04/02 04:40:16;;;;;;;2.53;2.33;;;;;;;5.92;100.00;96356.53;4932238;28;20225;-68
2023/04/02 04:42:45;;;;;;;4.20;2.17;;;;;;;5.89;100.00;96348.19;4929568;28;20662;-67
2023/04/02 04:45:39;;;;;;;2.10;2.00;;;;;;;5.94;100.00;96359.00;4933922;28;20244;-67
2023/04/02 04:48:10;;;;;;;2.33;2.23;;;;;;;5.95;100.00;96363.25;4950472;28;20217;-67
2023/04/02 04:50:41;;;;;;;2.23;2.13;;;;;;;5.94;100.00;96365.06;4952317;28;20653;-68
2023/04/02 04:53:16;;;;;;;2.27;2.17;;;;;;;5.95;100.00;96371.16;4946310;28;20210;-66
2023/04/02 04:55:44;;;;;;;2.70;2.50;;;;;;;5.88;100.00;96360.50;4889203;28;20218;-67
2023/04/02 04:58:18;;;;;;;2.30;2.20;;;;;;;5.87;100.00;96365.91;4931697;28;20216;-66
2023/04/02 05:00:54;;;;;;;2.40;2.30;;;;;;;5.91;100.00;96381.19;4917911;28;20221;-67
2023/04/02 05:03:29;;;;;;;2.17;2.07;;;;;;;5.94;100.00;96385.28;4950327;28;20216;-67
2023/04/02 05:06:03;;;;;;;2.47;2.20;;;;;;;5.93;100.00;96383.66;4926018;28;20233;-67
2023/04/02 05:08:35;;;;;;;2.93;2.30;;;;;;;5.99;100.00;96390.84;4951571;28;20590;-65
2023/04/02 05:11:06;;;;;;;3.20;3.00;;;;;;;6.00;100.00;96389.00;4871516;28;20245;-66
2023/04/02 05:13:38;;;;;;;3.03;2.83;;;;;;;5.93;100.00;96378.38;4949986;28;20214;-65
2023/04/02 05:16:13;;;;;;;3.13;2.80;;;;;;;6.01;100.00;96391.50;4913095;28;20524;-66
2023/04/02 05:18:43;;;;;;;3.10;2.90;;;;;;;6.03;100.00;96397.41;4952468;28;20197;-67
2023/04/02 05:21:16;;;;;;;3.27;3.07;;;;;;;6.08;100.00;96397.69;4951986;28;20229;-67
2023/04/02 05:23:48;;;;;;;3.13;3.00;;;;;;;6.10;100.00;96400.16;4954828;28;20861;-67
2023/04/02 05:26:19;;;;;;;4.03;3.00;;;;;;;6.06;100.00;96402.31;4896356;28;20240;-67
2023/04/02 05:28:53;;;;;;;4.00;3.80;;;;;;;6.07;100.00;96405.78;4939478;28;20479;-67
2023/04/02 05:31:24;;;;;;;3.10;2.90;;;;;;;6.15;100.00;96410.97;4929104;28;20229;-66
2023/04/02 05:33:53;;;;;;;3.20;3.00;;;;;;;6.13;100.00;96410.34;4946327;28;20301;-67
2023/04/02 05:36:23;;;;;;;3.60;3.30;;;;;;;6.12;100.00;96408.72;4937610;28;20206;-66
2023/04/02 05:38:53;;;;;;;3.50;3.30;;;;;;;6.15;100.00;96407.53;4949553;28;20252;-67
2023/04/02 05:41:25;;;;;;;3.80;3.60;;;;;;;6.16;100.00;96417.88;4892819;28;20251;-66
2023/04/02 05:43:59;;;;;;;3.73;3.43;;;;;;;6.23;100.00;96412.72;4953864;28;20198;-65
2023/04/02 05:46:31;;;;;;;3.60;3.30;;;;;;;6.21;100.00;96420.81;4907432;28;20767;-65
2023/04/02 05:48:59;;;;;;;3.87;3.50;;;;;;;6.30;100.00;96421.56;4948059;28;20200;-65
2023/04/02 05:51:31;;;;;;;3.10;2.90;;;;;;;6.33;100.00;96420.38;4925819;28;20305;-66
2023/04/02 05:54:03;;;;;;;3.57;3.37;;;;;;;6.36;100.00;96431.38;4943467;28;20962;-64
2023/04/02 05:56:35;;;;;;;3.70;3.50;;;;;;;6.37;100.00;96426.94;4910496;28;20640;-65
2023/04/02 05:59:07;;;;;;;4.13;3.83;;;;;;;6.43;100.00;96435.94;4940584;28;20214;-65
2023/04/02 06:01:41;;;;;;;3.63;3.43;;;;;;;6.48;100.00;96429.16;4922420;28;20214;-65
2023/04/02 06:04:17;;;;;;;3.70;3.50;;;;;;;6.54;100.00;96438.16;4948573;28;20213;-65
2023/04/02 06:06:48;;;;;;;3.27;3.07;;;;;;;6.55;100.00;96431.88;4929349;28;20225;-65
2023/04/02 06:09:22;;;;;;;3.73;3.53;;;;;;;6.64;100.00;96441.38;4945699;28;20213;-66
2023/04/02 06:11:54;;;;;;;3.77;3.57;;;;;;;6.69;100.00;96443.47;4910415;28;21060;-66
2023/04/02 06:14:22;;;;;;;3.33;3.13;;;;;;;6.71;100.00;96448.56;4940348;28;20205;-65
2023/04/02 06:16:50;;;;;;;4.07;3.77;;;;;;;6.71;100.00;96448.56;4929985;28;20632;-67
2023/04/02 06:19:22;;;;;;;3.70;3.40;;;;;;;6.72;100.00;96450.19;4911298;28;20205;-68
2023/04/02 06:21:51;;;;;;;4.30;3.50;;;;;;;6.75;100.00;96447.22;4927222;28;20225;-65
2023/04/02 06:24:23;;;;;;;3.67;3.37;;;;;;;6.77;100.00;96442.56;4932128;28;20240;-66
2023/04/02 06:26:55;;;;;;;3.40;3.20;;;;;;;6.76;100.00;96446.22;4911208;28;20681;-64
2023/04/02 06:29:28;;;;;;;3.40;3.20;;;;;;;6.70;100.00;96446.94;4928156;28;20304;-65
2023/04/02 06:31:57;;;;;;;3.47;3.20;;;;;;;6.73;100.00;96449.19;4934434;28;20210;-65
2023/04/02 06:34:26;;;;;;;3.50;3.20;;;;;;;6.78;100.00;96452.91;4929097;28;21181;-65
2023/04/02 06:36:56;;;;;;;4.37;4.10;;;;;;;6.75;100.00;96455.91;4946624;28;20202;-65
2023/04/02 06:39:26;;;;;;;5.33;3.27;;;;;;;6.73;100.00;96460.53;4909527;28;21083;-65
2023/04/02 06:41:58;;;;;;;3.50;3.30;;;;;;;6.76;100.00;96462.81;4915090;28;20806;-65
2023/04/02 06:44:27;;;;;;;3.50;3.30;;;;;;;6.80;100.00;96463.28;4958365;28;20276;-65
2023/04/02 06:46:58;;;;;;;3.50;3.30;;;;;;;6.83;100.00;96477.94;4958758;28;20229;-65
2023/04/02 06:49:32;;;;;;;3.70;3.50;;;;;;;6.84;100.00;96475.09;4934182;28;20214;-66
2023/04/02 06:52:01;;;;;;;3.77;3.50;;;;;;;6.71;100.00;96454.63;4953241;28;20223;-66
2023/04/02 06:54:31;;;;;;;3.67;3.47;;;;;;;6.95;100.00;96484.38;4939287;28;20404;-65
2023/04/02 06:56:59;;;;;;;4.13;3.90;;;;;;;6.93;100.00;96474.03;4935767;28;20232;-66
2023/04/02 06:59:30;;;;;;;4.03;3.73;;;;;;;7.04;100.00;96482.50;4929851;28;20264;-65
2023/04/02 07:02:02;;;;;;;4.40;4.20;;;;;;;7.05;100.00;96486.78;4940472;28;20216;-66
2023/04/02 07:04:30;;;;;;;4.43;4.13;;;;;;;7.17;100.00;96497.69;4942325;28;20852;-67
2023/04/02 07:06:58;;;;;;;4.03;3.80;;;;;;;7.19;100.00;96490.41;4947518;28;20217;-65
2023/04/02 07:09:25;;;;;;;3.80;3.60;;;;;;;7.18;100.00;96494.88;4928422;28;20209;-64
2023/04/02 07:11:54;;;;;;;4.03;3.73;;;;;;;7.23;100.00;96503.06;4931524;28;20439;-66
2023/04/02 07:14:22;;;;;;;4.07;3.83;;;;;;;7.20;100.00;96495.53;4902478;28;20240;-67
2023/04/02 07:16:50;;;;;;;3.63;3.43;;;;;;;7.29;100.00;96498.06;4949754;28;20206;-67
2023/04/02 07:19:20;;;;;;;3.57;3.27;;;;;;;7.12;100.00;96492.13;4933102;28;20209;-66
2023/04/02 07:21:48;;;;;;;4.20;3.90;;;;;;;7.21;100.00;96502.44;4946500;28;20203;-66
2023/04/02 07:24:16;;;;;;;3.90;3.70;;;;;;;7.32;100.00;96502.97;4927198;28;21104;-66
2023/04/02 07:26:46;;;;;;;3.93;3.73;;;;;;;7.35;100.00;96507.88;4919102;28;20913;-65
2023/04/02 07:29:16;;;;;;;3.83;3.53;;;;;;;7.43;100.00;96505.19;4903440;28;20214;-66
2023/04/02 07:31:44;;;;;;;4.10;3.80;;;;;;;7.43;100.00;96510.47;4952206;28;20757;-65
2023/04/02 07:34:11;;;;;;;3.97;3.67;;;;;;;7.36;100.00;96512.16;4934272;28;20245;-66
2023/04/02 07:36:39;;;;;;;4.07;3.87;;;;;;;7.37;100.00;96516.44;4949252;28;20248;-67
2023/04/02 07:39:07;;;;;;;4.47;4.17;;;;;;;7.44;100.00;96516.53;4955049;28;20209;-66
2023/04/02 07:41:50;;;;;;;4.60;4.20;;;;;;;7.43;100.00;96517.53;4933849;28;20517;-66
2023/04/02 07:44:19;;;;;;;3.97;3.77;;;;;;;7.43;100.00;96523.63;4885903;28;20217;-68
2023/04/02 07:46:47;;;;;;;3.70;3.50;;;;;;;7.51;100.00;96533.25;4952007;28;20213;-67
2023/04/02 07:49:14;;;;;;;4.20;3.93;;;;;;;7.49;100.00;96527.34;4936972;28;20223;-68
2023/04/02 07:51:42;;;;;;;4.10;3.90;;;;;;;7.45;100.00;96532.19;4948251;28;20198;-68
2023/04/02 07:54:10;;;;;;;4.27;3.97;;;;;;;7.55;100.00;96539.00;4958380;28;20288;-68
2023/04/02 07:56:37;;;;;;;4.23;3.93;;;;;;;7.66;100.00;96546.47;4915514;28;20699;-71
2023/04/02 07:59:05;;;;;;;3.80;3.50;;;;;;;7.70;100.00;96549.56;4933691;28;20264;-66
2023/04/02 08:01:35;;;;;;;4.10;3.80;;;;;;;7.66;100.00;96551.72;4880296;28;20210;-66
2023/04/02 08:04:04;;;;;;;4.20;3.90;;;;;;;7.54;100.00;96559.25;4944237;28;20644;-66
2023/04/02 08:06:31;;;;;;;4.57;4.27;;;;;;;7.42;100.00;96558.06;4924245;28;20214;-66
2023/04/02 08:08:59;;;;;;;4.10;3.83;;;;;;;7.57;100.00;96566.00;4957084;28;20221;-66
2023/04/02 08:11:26;;;;;;;4.43;4.13;;;;;;;7.60;100.00;96569.09;4904589;28;22867;-67
2023/04/02 08:13:58;;;;;;;4.33;4.03;;;;;;;7.69;100.00;96567.19;4942537;28;20288;-68
2023/04/02 08:16:26;;;;;;;3.80;3.50;;;;;;;7.91;100.00;96573.38;4882676;28;22137;-66
2023/04/02 08:18:55;;;;;;;4.67;4.30;;;;;;;8.07;100.00;96582.94;4935770;28;21181;-66
2023/04/02 08:21:24;;;;;;;4.33;4.03;;;;;;;8.08;100.00;96578.47;4917633;28;21515;-66
2023/04/02 08:23:51;;;;;;;3.40;3.20;;;;;;;8.20;100.00;96581.47;4926585;28;20205;-65
2023/04/02 08:26:19;;;;;;;3.50;3.30;;;;;;;8.30;100.00;96576.72;4956703;28;20206;-65
2023/04/02 08:28:46;;;;;;;4.60;4.30;;;;;;;8.41;100.00;96580.72;4929239;28;20787;-66
2023/04/02 08:31:14;;;;;;;4.57;4.27;;;;;;;8.38;100.00;96581.09;4889589;28;21269;-66
2023/04/02 08:33:42;;;;;;;4.93;4.27;;;;;;;8.33;100.00;96578.16;4936290;28;20218;-66
2023/04/02 08:36:15;;;;;;;3.47;3.20;;;;;;;8.40;100.00;96573.81;4914923;28;20212;-67
2023/04/02 08:38:43;;;;;;;3.47;3.27;;;;;;;8.44;100.00;96576.88;4954687;28;20206;-66
2023/04/02 08:41:20;;;;;;;12.00;10.80;;;;;;;8.30;100.00;96574.09;4952840;28;20222;-65
2023/04/02 08:43:59;;;;;;;4.40;4.10;;;;;;;8.29;100.00;96580.38;4930997;28;20208;-65
2023/04/02 08:46:30;;;;;;;3.23;3.03;;;;;;;8.35;100.00;96582.28;4932440;28;20312;-64
2023/04/02 08:49:01;;;;;;;3.10;2.90;;;;;;;8.38;100.00;96581.91;4896326;28;21161;-66
2023/04/02 08:51:34;;;;;;;3.67;3.47;;;;;;;8.53;100.00;96578.47;4912755;28;20229;-64
2023/04/02 08:54:16;;;;;;;3.10;2.90;;;;;;;8.55;100.00;96579.09;4936516;28;20206;-65
2023/04/02 08:56:47;;;;;;;2.73;2.53;;;;;;;8.53;100.00;96586.38;4956985;28;20204;-65
2023/04/02 08:59:21;;;;;;;3.47;3.17;;;;;;;8.43;100.00;96588.44;4929908;28;20711;-64
2023/04/02 09:01:56;;;;;;;3.00;2.80;;;;;;;8.33;100.00;96583.44;4927297;28;20213;-66
2023/04/02 09:04:25;;;;;;;3.10;2.90;;;;;;;8.19;100.00;96585.13;4916827;28;20204;-65
2023/04/02 09:06:56;;;;;;;2.80;2.70;;;;;;;8.00;100.00;96610.25;4907065;28;20210;-67
2023/04/02 09:09:25;;;;;;;2.13;1.87;;;;;;;7.46;100.00;96612.91;4940755;28;20229;-66
2023/04/02 09:11:55;;;;;;;1.27;1.27;;;;;;;7.06;100.00;96626.19;4954852;28;20837;-67
2023/04/02 09:14:29;;;;;;;2.07;1.97;;;;;;;6.75;100.00;96650.75;4953890;28;20204;-66
2023/04/02 09:17:01;;;;;;;3.07;2.87;;;;;;;6.48;100.00;96646.75;4921073;28;20304;-67
2023/04/02 09:19:34;;;;;;;2.63;2.53;;;;;;;6.52;100.00;96663.84;4882752;28;20238;-67
2023/04/02 09:22:09;;;;;;;2.40;2.30;;;;;;;6.61;100.00;96683.88;4925263;28;20212;-67
2023/04/02 09:24:37;;;;;;;3.60;3.40;;;;;;;6.67;100.00;96690.28;4953105;28;20899;-67
2023/04/02 09:27:17;;;;;;;2.10;2.03;;;;;;;6.49;100.00;96704.50;4953479;28;20777;-67
2023/04/02 09:29:45;;;;;;;3.00;2.90;;;;;;;6.72;100.00;96709.00;4954490;28;20236;-66
2023/04/02 09:32:23;;;;;;;2.43;2.33;;;;;;;6.90;100.00;96723.75;4930927;28;20444;-66
2023/04/02 09:35:05;;;;;;;2.30;2.20;;;;;;;6.77;100.00;96711.16;4898707;28;20661;-66
2023/04/02 09:38:11;;;;;;;2.30;2.20;;;;;;;6.60;100.00;96723.56;4927477;28;20275;-67
2023/04/02 09:40:43;;;;;;;1.70;1.70;;;;;;;6.65;100.00;96726.50;4953580;28;20629;-66
2023/04/02 09:43:12;;;;;;;2.10;2.00;;;;;;;6.77;100.00;96724.31;4949634;28;20522;-66
2023/04/02 09:45:41;;;;;;;2.30;2.20;;;;;;;6.79;100.00;96736.28;4953628;28;20625;-67
2023/04/02 09:48:21;;;;;;;2.30;2.20;;;;;;;6.96;100.00;96741.50;4926297;28;20949;-66
2023/04/02 09:50:49;;;;;;;2.00;1.90;;;;;;;6.90;100.00;96745.63;4877298;28;20226;-66
2023/04/02 09:53:28;;;;;;;1.80;1.80;;;;;;;6.61;100.00;96747.06;4924192;28;20233;-66
2023/04/02 09:56:11;;;;;;;1.93;1.83;;;;;;;6.85;100.00;96737.44;4954291;28;20213;-66
2023/04/02 09:58:41;;;;;;;2.30;2.20;;;;;;;6.70;100.00;96747.06;4948070;28;20205;-66
2023/04/02 10:01:24;;;;;;;1.90;1.80;;;;;;;6.72;100.00;96751.13;4925849;28;21146;-67
2023/04/02 10:03:51;;;;;;;2.10;2.00;;;;;;;6.77;100.00;96754.09;4919591;28;20211;-66
2023/04/02 10:06:19;;;;;;;1.70;1.70;;;;;;;6.71;100.00;96756.59;4878707;28;20767;-67
2023/04/02 10:08:48;;;;;;;2.63;2.53;;;;;;;6.77;100.00;96763.81;4930305;28;20248;-66
2023/04/02 10:11:20;;;;;;;2.63;2.53;;;;;;;6.87;100.00;96761.78;4948342;28;20603;-66
2023/04/02 10:13:52;;;;;;;2.60;2.50;;;;;;;6.89;100.00;96765.06;4921813;28;20214;-66
2023/04/02 10:16:26;;;;;;;1.80;1.80;;;;;;;6.76;100.00;96760.34;4951268;28;20418;-67
2023/04/02 10:18:57;;;;;;;1.73;1.73;;;;;;;6.68;100.00;96770.09;4934223;28;20202;-66
2023/04/02 10:21:27;;;;;;;1.53;1.53;;;;;;;6.68;100.00;96772.72;4897802;28;20269;-64
2023/04/02 10:23:58;;;;;;;2.40;2.30;;;;;;;6.76;100.00;96777.97;4930390;28;20799;-66
2023/04/02 10:26:46;;;;;;;2.50;2.40;;;;;;;6.89;100.00;96769.53;4956408;28;20409;-64
2023/04/02 10:29:37;;;;;;;2.30;2.20;;;;;;;6.89;100.00;96780.88;4925997;28;20583;-66
2023/04/02 10:32:08;;;;;;;2.20;2.10;;;;;;;6.81;100.00;96780.91;4899929;28;20213;-65
2023/04/02 10:34:43;;;;;;;2.33;2.23;;;;;;;7.07;100.00;96785.09;4933834;28;20224;-66
2023/04/02 10:37:27;;;;;;;2.60;2.50;;;;;;;7.18;100.00;96782.06;4906767;28;20933;-64
2023/04/02 10:39:58;;;;;;;3.07;2.00;;;;;;;6.94;100.00;96786.44;4927167;28;20790;-70
2023/04/02 10:42:30;;;;;;;2.67;2.57;;;;;;;6.86;100.00;96783.84;4957934;28;20206;-68
2023/04/02 10:45:00;;;;;;;1.97;1.97;;;;;;;6.73;100.00;96800.19;4926296;28;20471;-69
2023/04/02 10:47:36;;;;;;;2.83;2.63;;;;;;;6.75;100.00;96807.91;4956868;28;20455;-66
2023/04/02 10:50:24;;;;;;;2.70;2.60;;;;;;;6.73;100.00;96815.16;4928349;28;20787;-65
2023/04/02 10:52:56;;;;;;;2.60;2.50;;;;;;;6.85;100.00;96823.53;4899376;28;20729;-65
2023/04/02 10:55:30;;;;;;;2.80;2.60;;;;;;;6.97;100.00;96831.88;4912194;28;20248;-67
2023/04/02 10:58:00;;;;;;;2.90;2.73;;;;;;;7.09;100.00;96841.88;4946349;28;20225;-65
2023/04/02 11:00:28;;;;;;;2.17;2.07;;;;;;;6.90;100.00;96837.81;4954047;28;20248;-66
2023/04/02 11:02:58;;;;;;;2.97;2.77;;;;;;;6.95;100.00;96851.28;4958737;28;20210;-66
2023/04/02 11:05:31;;;;;;;1.90;1.80;;;;;;;6.71;100.00;96859.28;4934402;28;20280;-66
2023/04/02 11:08:02;;;;;;;2.57;2.47;;;;;;;6.72;100.00;96850.38;4907044;28;20566;-65
2023/04/02 11:10:34;;;;;;;1.70;1.60;;;;;;;6.48;100.00;96855.53;4930284;28;20268;-64
2023/04/02 11:13:07;;;;;;;2.13;2.03;;;;;;;6.30;100.00;96853.06;4953671;28;20588;-65
2023/04/02 11:15:35;;;;;;;2.27;2.17;;;;;;;6.42;100.00;96852.72;4953841;28;20205;-65
2023/04/02 11:18:04;;;;;;;2.10;1.90;;;;;;;6.41;100.00;96859.78;4956320;28;20735;-65
2023/04/02 11:21:05;;;;;;;2.37;2.27;;;;;;;6.54;100.00;96864.53;4930443;28;20391;-63
2023/04/02 11:23:35;;;;;;;2.07;1.97;;;;;;;6.39;100.00;96867.03;4902329;28;20624;-66
2023/04/02 11:26:34;;;;;;;2.20;2.10;;;;;;;6.28;100.00;96857.66;4933353;28;22148;-66
2023/04/02 11:29:06;;;;;;;2.73;2.63;;;;;;;6.23;100.00;96859.94;4943301;28;20955;-65
2023/04/02 11:31:34;;;;;;;2.63;2.53;;;;;;;6.22;100.00;96866.19;4950571;28;20601;-66
2023/04/02 11:34:02;;;;;;;2.50;2.40;;;;;;;6.23;100.00;96863.41;4929916;28;20823;-66
2023/04/02 11:36:59;;;;;;;3.00;2.90;;;;;;;6.43;100.00;96864.88;4928740;28;20244;-67
2023/04/02 11:39:52;;;;;;;2.80;2.70;;;;;;;6.64;100.00;96874.91;4910855;28;20744;-67
2023/04/02 11:42:29;;;;;;;2.33;2.23;;;;;;;6.51;100.00;96864.88;4933679;28;20561;-67
2023/04/02 11:44:59;;;;;;;2.80;2.70;;;;;;;6.38;100.00;96854.84;4931055;28;20213;-66
2023/04/02 11:47:28;;;;;;;2.80;2.70;;;;;;;6.43;100.00;96864.88;4929964;28;20220;-66
2023/04/02 11:50:00;;;;;;;8.70;6.90;;;;;;;6.47;100.00;96869.66;4951626;28;21166;-65
2023/04/02 11:52:31;;;;;;;2.77;2.67;;;;;;;6.46;100.00;96856.66;4926599;28;20206;-66
2023/04/02 11:55:06;;;;;;;2.70;2.60;;;;;;;6.64;100.00;96872.28;4906863;28;20214;-65
2023/04/02 11:57:46;;;;;;;2.67;2.57;;;;;;;6.49;100.00;96869.50;4929681;28;20220;-67